Time;durP1;ratioP1;P1;durP2;ratioP2;P2;SDS_P1;SDS_P2;PMS_P1;PMS_P2;Temp;Humidity;BMP_temperature;BMP_pressure;BME280_temperature;BME280_humidity;BME280_pressure;Samples;Min_cycle;Max_cycle;Signal;HPM_P1;HPM_P2
2022/05/13 00:01:20;;;;;;;17.23;5.47;;;;;;;20.38;41.55;101268.06;5091849;28;20429;-75
2022/05/13 00:03:46;;;;;;;18.40;5.13;;;;;;;20.58;41.15;101265.31;5092239;28;20043;-76
2022/05/13 00:06:12;;;;;;;12.77;4.35;;;;;;;20.34;41.50;101261.66;5091710;28;20495;-76
2022/05/13 00:08:38;;;;;;;23.33;5.05;;;;;;;20.45;41.20;101264.66;5090932;28;20501;-76
2022/05/13 00:11:06;;;;;;;20.05;4.65;;;;;;;20.39;41.38;101247.47;5091905;28;20028;-76
2022/05/13 00:13:32;;;;;;;20.52;5.53;;;;;;;20.19;41.87;101254.22;5090775;28;20486;-76
2022/05/13 00:15:59;;;;;;;23.58;5.32;;;;;;;20.14;42.03;101252.53;5092061;28;20043;-76
2022/05/13 00:18:25;;;;;;;19.00;5.40;;;;;;;20.40;41.40;101254.63;5092109;28;20494;-76
2022/05/13 00:20:51;;;;;;;21.27;5.28;;;;;;;20.31;41.56;101250.47;5062410;28;20055;-76
2022/05/13 00:23:17;;;;;;;16.30;5.07;;;;;;;20.15;41.74;101256.09;5092057;28;20394;-76
2022/05/13 00:25:43;;;;;;;18.08;4.90;;;;;;;20.02;42.36;101249.88;5091997;28;20035;-77
2022/05/13 00:28:10;;;;;;;12.95;4.57;;;;;;;19.92;42.66;101248.50;5091850;28;20044;-76
2022/05/13 00:30:38;;;;;;;15.80;4.03;;;;;;;20.34;41.65;101250.56;5092239;28;20028;-76
2022/05/13 00:33:05;;;;;;;;;;;;;;;20.14;42.11;101257.28;5092558;28;20089;-76
2022/05/13 00:35:32;;;;;;;17.08;5.40;;;;;;;20.08;42.31;101247.63;5091752;28;19919;-76
2022/05/13 00:37:58;;;;;;;20.73;4.97;;;;;;;20.18;42.07;101255.38;5091756;28;20020;-77
2022/05/13 00:40:24;;;;;;;16.75;4.72;;;;;;;20.15;42.18;101256.09;5092264;28;20086;-76
2022/05/13 00:42:56;;;;;;;15.05;4.82;;;;;;;20.26;41.83;101254.38;5091819;28;20032;-77
2022/05/13 00:45:22;;;;;;;22.98;7.32;;;;;;;20.40;41.35;101249.09;5091598;28;20119;-77
2022/05/13 00:47:47;;;;;;;16.10;4.95;;;;;;;20.25;41.96;101241.63;5091526;28;20116;-76
2022/05/13 00:50:14;;;;;;;19.58;5.82;;;;;;;20.33;41.74;101240.63;5094354;28;20093;-76
2022/05/13 00:52:44;;;;;;;25.58;5.28;;;;;;;20.19;41.98;101235.59;5095702;28;20058;-76
2022/05/13 00:55:13;;;;;;;24.13;6.63;;;;;;;19.88;42.95;101241.28;5095759;28;20036;-76
2022/05/13 00:57:40;;;;;;;24.00;6.95;;;;;;;20.31;42.01;101234.63;5095301;28;20467;-76
2022/05/13 01:00:11;;;;;;;22.85;5.80;;;;;;;19.97;42.77;101243.84;5095552;28;20024;-76
2022/05/13 01:02:37;;;;;;;17.25;4.43;;;;;;;20.14;42.38;101244.19;5093642;28;20118;-76
2022/05/13 01:05:05;;;;;;;24.42;6.05;;;;;;;20.23;42.09;101233.69;5095345;28;20066;-76
2022/05/13 01:07:32;;;;;;;14.85;5.30;;;;;;;20.19;42.26;101243.13;5095125;28;20040;-76
2022/05/13 01:10:00;;;;;;;15.98;5.32;;;;;;;20.22;42.29;101225.72;5074868;28;20394;-76
2022/05/13 01:12:34;;;;;;;15.23;4.95;;;;;;;19.93;42.88;101218.81;5094825;28;20024;-76
2022/05/13 01:15:22;;;;;;;21.17;5.20;;;;;;;19.93;42.67;101230.69;5094986;28;20032;-76
2022/05/13 01:18:06;;;;;;;18.33;5.15;;;;;;;19.74;43.30;101227.13;5095383;28;20633;-77
2022/05/13 01:20:40;;;;;;;13.82;4.93;;;;;;;20.00;42.52;101227.28;5094992;28;20089;-76
2022/05/13 01:23:09;;;;;;;19.05;5.85;;;;;;;19.42;43.97;101221.63;5094805;28;20032;-76
2022/05/13 01:25:40;;;;;;;17.40;5.53;;;;;;;19.76;43.21;101222.00;5095057;28;20024;-76
2022/05/13 01:28:20;;;;;;;16.55;4.10;;;;;;;19.73;43.32;101231.88;5094839;28;20052;-76
2022/05/13 01:30:52;;;;;;;18.80;4.97;;;;;;;19.75;43.13;101228.72;5095124;28;20451;-77
2022/05/13 01:33:19;;;;;;;22.10;5.65;;;;;;;19.82;42.92;101218.59;5094718;28;20027;-83
2022/05/13 01:35:47;;;;;;;13.55;4.95;;;;;;;19.97;42.74;101213.34;5094930;28;20047;-76
2022/05/13 01:38:14;;;;;;;17.35;4.90;;;;;;;19.78;43.21;101201.06;5093117;28;20077;-76
2022/05/13 01:40:40;;;;;;;22.30;5.38;;;;;;;19.76;43.12;101186.78;5093735;28;20031;-77
2022/05/13 01:43:07;;;;;;;20.17;6.07;;;;;;;19.61;43.46;101204.28;5094004;28;20387;-76
2022/05/13 01:45:33;;;;;;;25.92;6.10;;;;;;;19.74;43.32;101208.53;5094524;28;20549;-76
2022/05/13 01:47:59;;;;;;;17.27;4.60;;;;;;;19.67;43.38;101208.38;5094382;28;20032;-77
2022/05/13 01:50:26;;;;;;;25.45;4.22;;;;;;;19.29;44.13;101203.53;5094596;28;20024;-76
2022/05/13 01:52:54;;;;;;;21.52;5.38;;;;;;;19.59;43.60;101209.38;5092937;28;20117;-76
2022/05/13 01:55:21;;;;;;;19.98;4.72;;;;;;;19.71;43.18;101209.22;5093148;28;20045;-76
2022/05/13 01:57:46;;;;;;;16.65;4.50;;;;;;;19.67;43.26;101205.59;5094450;28;20524;-76
2022/05/13 02:00:12;;;;;;;12.95;4.82;;;;;;;19.39;43.85;101201.00;5094195;28;20032;-76
2022/05/13 02:05:24;;;;;;;14.98;4.80;;;;;;;19.45;43.76;101204.28;5094154;28;20036;-76
2022/05/13 02:07:51;;;;;;;16.30;4.25;;;;;;;19.71;43.11;101208.44;5093867;28;20023;-76
2022/05/13 02:10:17;;;;;;;18.73;4.78;;;;;;;19.52;43.54;101201.69;5093882;28;20394;-76
2022/05/13 02:12:43;;;;;;;20.27;5.60;;;;;;;19.75;42.99;101214.88;5093946;28;20441;-77
2022/05/13 02:15:09;;;;;;;13.80;4.53;;;;;;;19.70;42.95;101215.16;5094181;28;20119;-76
2022/05/13 02:17:34;;;;;;;21.50;5.45;;;;;;;19.82;42.76;101203.94;5093891;28;20157;-76
2022/05/13 02:20:00;;;;;;;19.13;5.90;;;;;;;19.75;42.90;101207.34;5094156;28;20035;-76
2022/05/13 02:22:26;;;;;;;22.67;4.90;;;;;;;19.69;43.07;101206.03;5093914;28;20116;-76
2022/05/13 02:24:51;;;;;;;15.52;4.78;;;;;;;19.62;43.34;101214.19;5093547;28;20043;-76
2022/05/13 02:27:17;;;;;;;17.17;4.38;;;;;;;19.70;43.08;101217.91;5093567;28;20436;-76
2022/05/13 02:29:42;;;;;;;20.35;4.72;;;;;;;19.56;43.26;101204.50;5093859;28;20028;-76
2022/05/13 02:32:08;;;;;;;18.55;5.07;;;;;;;19.81;42.87;101199.56;5093533;28;20028;-76
2022/05/13 02:34:36;;;;;;;20.08;5.35;;;;;;;19.89;42.55;101207.66;5085291;28;20024;-76
2022/05/13 02:37:03;;;;;;;22.02;6.90;;;;;;;19.97;42.33;101193.94;5093510;28;20024;-76
2022/05/13 02:39:29;;;;;;;18.63;4.43;;;;;;;19.78;42.83;101189.16;5093392;28;20032;-76
2022/05/13 02:41:55;;;;;;;15.10;5.35;;;;;;;19.82;42.81;101193.63;5092200;28;20090;-76
2022/05/13 02:44:21;;;;;;;19.67;4.55;;;;;;;19.93;42.12;101189.09;5092914;28;20517;-76
2022/05/13 02:46:47;;;;;;;15.77;4.32;;;;;;;19.77;42.84;101188.38;5093119;28;20139;-76
2022/05/13 02:49:13;;;;;;;18.52;4.63;;;;;;;19.78;42.65;101183.63;5092581;28;20501;-77
2022/05/13 02:51:40;;;;;;;21.95;5.22;;;;;;;19.85;42.61;101175.47;5093566;28;20027;-91
2022/05/13 02:54:07;;;;;;;23.73;4.65;;;;;;;19.86;42.40;101183.41;5092999;28;20016;-76
2022/05/13 02:56:34;;;;;;;21.17;5.32;;;;;;;19.80;42.45;101193.22;5093332;28;20032;-77
2022/05/13 02:59:00;;;;;;;13.30;4.50;;;;;;;20.03;41.65;101184.16;5093287;28;20023;-76
2022/05/13 03:01:26;;;;;;;26.90;6.18;;;;;;;19.84;42.19;101179.41;5092831;28;20060;-76
2022/05/13 03:03:52;;;;;;;26.17;6.32;;;;;;;19.95;42.12;101195.09;5093163;28;20036;-76
2022/05/13 03:06:20;;;;;;;15.68;4.68;;;;;;;19.85;42.33;101189.31;5092765;28;20035;-76
2022/05/13 03:08:47;;;;;;;18.80;5.50;;;;;;;19.98;42.10;101199.09;5092982;28;20385;-77
2022/05/13 03:11:14;;;;;;;16.42;4.53;;;;;;;19.98;41.93;101206.63;5092683;28;20028;-76
2022/05/13 03:13:40;;;;;;;18.38;5.47;;;;;;;20.07;41.68;101213.53;5092112;28;20026;-76
2022/05/13 03:16:14;;;;;;;20.52;5.45;;;;;;;19.68;42.46;101202.44;5092821;28;20020;-76
2022/05/13 03:18:41;;;;;;;23.20;5.13;;;;;;;19.77;42.54;101205.00;5093019;28;20106;-76
2022/05/13 03:21:08;;;;;;;21.17;6.50;;;;;;;19.90;42.07;101214.00;5092996;28;20021;-76
2022/05/13 03:23:34;;;;;;;20.83;5.43;;;;;;;19.73;42.51;101208.88;5092482;28;20034;-76
2022/05/13 03:26:00;;;;;;;21.90;5.50;;;;;;;19.79;42.42;101213.75;5092955;28;20216;-76
2022/05/13 03:28:26;;;;;;;14.85;4.60;;;;;;;19.75;42.44;101214.88;5092586;28;20059;-77
2022/05/13 03:30:52;;;;;;;21.38;4.90;;;;;;;19.79;42.42;101201.88;5092787;28;20043;-76
2022/05/13 03:33:19;;;;;;;18.02;5.63;;;;;;;19.78;42.42;101206.59;5092561;28;20028;-76
2022/05/13 03:35:45;;;;;;;22.60;6.53;;;;;;;19.71;42.51;101212.00;5092679;28;20024;-76
2022/05/13 03:38:11;;;;;;;16.17;5.30;;;;;;;19.79;42.35;101197.13;5092412;28;20047;-76
2022/05/13 03:40:37;;;;;;;21.75;5.50;;;;;;;19.60;42.99;101199.91;5092563;28;20016;-91
2022/05/13 03:43:04;;;;;;;21.33;4.97;;;;;;;19.65;42.88;101202.38;5092117;28;20085;-76
2022/05/13 03:45:32;;;;;;;26.42;5.70;;;;;;;19.68;42.63;101196.09;5092468;28;20090;-76
2022/05/13 03:48:01;;;;;;;21.92;5.88;;;;;;;19.50;43.18;101194.91;5092641;28;20386;-76
2022/05/13 03:50:27;;;;;;;19.38;5.40;;;;;;;19.38;43.03;101193.03;5092331;28;20057;-76
2022/05/13 03:52:53;;;;;;;13.30;4.00;;;;;;;19.49;43.07;101198.81;5092381;28;20127;-76
2022/05/13 03:55:19;;;;;;;23.55;5.82;;;;;;;19.43;43.14;101214.13;5092628;28;20518;-76
2022/05/13 03:57:45;;;;;;;16.20;4.70;;;;;;;19.47;43.13;101206.69;5092285;28;20069;-81
2022/05/13 04:00:12;;;;;;;21.95;4.90;;;;;;;19.40;43.28;101210.91;5092634;28;20110;-76
2022/05/13 04:02:38;;;;;;;26.63;4.97;;;;;;;19.57;42.85;101206.97;5092168;28;20058;-76
2022/05/13 04:10:34;;;;;;;14.88;4.78;;;;;;;19.49;43.26;101204.34;5092370;28;20035;-77
2022/05/13 04:18:28;;;;;;;22.08;5.28;;;;;;;18.99;44.56;101197.69;5092213;28;20452;-77
2022/05/13 04:20:54;;;;;;;15.68;4.75;;;;;;;19.20;44.06;101192.66;5264854;22;20053;-76
2022/05/13 04:23:19;;;;;;;19.35;5.25;;;;;;;19.26;43.86;101193.16;5052854;28;20025;-76
2022/05/13 04:25:46;;;;;;;14.27;5.32;;;;;;;19.35;43.61;101180.72;5056329;28;20025;-76
2022/05/13 04:28:11;;;;;;;24.27;5.60;;;;;;;19.07;44.44;101180.88;5055957;28;20029;-76
2022/05/13 04:30:37;;;;;;;13.18;5.47;;;;;;;18.87;45.31;101179.19;5055903;28;20074;-76
2022/05/13 04:33:03;;;;;;;18.92;5.25;;;;;;;19.13;44.31;101176.66;5055071;28;20025;-77
2022/05/13 04:35:29;;;;;;;21.02;6.15;;;;;;;19.38;43.58;101176.41;5055756;28;20040;-76
2022/05/13 04:37:55;;;;;;;27.08;7.38;;;;;;;19.23;44.01;101169.75;5056560;28;20483;-77
2022/05/13 04:40:20;;;;;;;15.25;4.72;;;;;;;19.00;44.41;101171.59;5055840;28;20021;-76
2022/05/13 04:42:52;;;;;;;21.17;5.63;;;;;;;19.09;44.20;101186.03;5037938;28;20032;-76
2022/05/13 04:45:30;;;;;;;13.70;6.18;;;;;;;19.10;43.85;101182.09;5056014;28;20033;-76
2022/05/13 04:48:16;;;;;;;20.23;5.68;;;;;;;19.20;43.98;101178.00;5037261;28;20033;-76
2022/05/13 04:50:54;;;;;;;20.58;5.50;;;;;;;19.21;43.84;101185.94;5055979;28;20060;-76
2022/05/13 04:53:25;;;;;;;21.33;5.63;;;;;;;19.01;44.38;101175.97;5037944;28;20475;-76
2022/05/13 04:55:51;;;;;;;30.05;5.80;;;;;;;19.04;44.21;101175.22;5055582;28;20033;-76
2022/05/13 04:58:18;;;;;;;14.85;4.50;;;;;;;19.17;43.82;101157.34;5055592;28;20029;-76
2022/05/13 05:00:45;;;;;;;18.08;4.68;;;;;;;19.36;43.50;101156.59;5037496;28;20039;-76
2022/05/13 05:03:11;;;;;;;25.58;5.72;;;;;;;19.06;44.10;101164.63;5055217;28;20037;-76
2022/05/13 05:05:36;;;;;;;18.92;4.00;;;;;;;18.91;44.54;101152.41;5037181;28;20096;-76
2022/05/13 05:08:02;;;;;;;16.13;3.97;;;;;;;19.16;44.17;101154.94;5055048;28;20103;-77
2022/05/13 05:10:28;;;;;;;20.67;5.18;;;;;;;19.01;44.17;101156.56;5037280;28;20086;-76
2022/05/13 05:12:55;;;;;;;15.32;4.68;;;;;;;19.18;43.87;101153.41;5055021;28;20474;-76
2022/05/13 05:15:21;;;;;;;17.95;5.47;;;;;;;19.27;43.55;101165.13;5055116;28;20050;-76
2022/05/13 05:17:47;;;;;;;15.45;4.93;;;;;;;18.73;44.63;101174.09;5037096;28;20036;-76
2022/05/13 05:20:12;;;;;;;17.10;5.30;;;;;;;19.22;43.61;101170.91;5055114;28;20024;-76
2022/05/13 05:22:38;;;;;;;17.15;4.40;;;;;;;19.54;42.95;101168.06;5053819;28;20139;-76
2022/05/13 05:25:04;;;;;;;17.63;5.10;;;;;;;19.49;43.01;101176.66;5055031;28;20036;-91
2022/05/13 05:27:35;;;;;;;17.33;4.90;;;;;;;18.90;44.23;101181.25;5055048;28;20035;-76
2022/05/13 05:30:01;;;;;;;27.55;6.00;;;;;;;19.32;43.49;101175.91;5055160;28;20029;-76
2022/05/13 05:32:26;;;;;;;14.57;4.53;;;;;;;19.46;43.19;101183.72;5053512;28;20033;-76
2022/05/13 05:34:52;;;;;;;20.30;5.05;;;;;;;19.73;42.37;101184.75;5054517;28;20479;-76
2022/05/13 05:37:17;;;;;;;18.35;4.28;;;;;;;19.71;42.34;101186.25;5049938;28;20037;-76
2022/05/13 05:39:43;;;;;;;20.67;5.32;;;;;;;19.53;42.91;101189.41;5054744;28;20024;-76
2022/05/13 05:42:12;;;;;;;14.93;4.53;;;;;;;19.23;43.32;101186.38;5036900;28;20094;-76
2022/05/13 05:44:37;;;;;;;19.25;5.35;;;;;;;19.36;43.18;101187.88;5054540;28;20468;-76
2022/05/13 05:47:04;;;;;;;13.43;3.58;;;;;;;19.23;43.28;101186.38;5055149;28;20112;-76
2022/05/13 05:49:30;;;;;;;24.70;5.00;;;;;;;19.84;42.21;101196.84;5054341;28;20475;-76
2022/05/13 05:51:56;;;;;;;19.88;4.65;;;;;;;20.18;41.28;101191.56;5054190;28;20368;-76
2022/05/13 05:57:15;;;;;;;17.30;4.47;;;;;;;20.14;41.64;101183.16;5054311;28;20036;-76
2022/05/13 05:59:45;;;;;;;18.05;4.65;;;;;;;20.30;41.26;101194.16;5055800;28;20024;-76
2022/05/13 06:02:11;;;;;;;20.55;5.68;;;;;;;20.37;41.17;101194.31;5053960;28;20479;-76
2022/05/13 06:04:37;;;;;;;23.45;6.32;;;;;;;20.34;41.40;101197.03;5053989;28;20029;-76
2022/05/13 06:07:07;;;;;;;21.20;5.03;;;;;;;20.10;41.29;101196.19;5053229;28;20043;-77
2022/05/13 06:09:33;;;;;;;17.65;5.15;;;;;;;20.24;41.20;101195.63;5051869;28;20023;-76
2022/05/13 06:11:59;;;;;;;17.90;5.35;;;;;;;20.61;40.58;101198.72;5056182;28;20029;-76
2022/05/13 06:14:26;;;;;;;19.27;5.47;;;;;;;20.24;41.30;101192.84;5037005;28;20098;-76
2022/05/13 06:16:52;;;;;;;20.52;5.18;;;;;;;20.61;40.52;101197.91;5053959;28;20033;-76
2022/05/13 06:19:17;;;;;;;16.30;4.78;;;;;;;20.49;40.75;101194.16;5034137;28;20037;-76
2022/05/13 06:21:43;;;;;;;23.02;5.07;;;;;;;20.26;41.10;101193.31;5018211;28;20041;-76
2022/05/13 06:24:09;;;;;;;17.20;5.05;;;;;;;20.83;40.16;101205.44;5029403;28;20037;-77
2022/05/13 06:26:36;;;;;;;17.25;5.63;;;;;;;20.95;39.82;101185.81;5035057;28;20029;-78
2022/05/13 06:29:03;;;;;;;29.52;6.63;;;;;;;20.80;40.19;101203.41;5037667;28;20653;-77
2022/05/13 06:31:29;;;;;;;19.88;5.93;;;;;;;20.93;40.12;101218.72;5020577;28;20036;-76
2022/05/13 06:33:54;;;;;;;23.65;5.85;;;;;;;20.96;40.08;101206.84;5037807;28;20402;-77
2022/05/13 06:36:20;;;;;;;22.17;5.18;;;;;;;21.04;39.94;101203.00;5036647;28;20028;-76
2022/05/13 06:38:47;;;;;;;24.55;6.75;;;;;;;21.13;39.96;101204.72;5018616;28;20387;-77
2022/05/13 06:41:12;;;;;;;24.17;5.82;;;;;;;20.97;40.09;101208.47;5021921;28;20025;-76
2022/05/13 06:43:38;;;;;;;21.88;6.13;;;;;;;21.29;39.43;101205.41;5018108;28;20037;-77
2022/05/13 06:46:04;;;;;;;16.20;5.40;;;;;;;20.92;40.49;101213.50;5017504;28;20032;-76
2022/05/13 06:48:29;;;;;;;15.43;5.13;;;;;;;21.14;39.68;101217.44;5016794;28;20403;-76
2022/05/13 06:50:55;;;;;;;20.52;4.43;;;;;;;21.02;40.11;101207.34;5017894;28;20071;-76
2022/05/13 06:53:21;;;;;;;21.67;5.40;;;;;;;21.35;39.62;101219.78;5017241;28;20045;-77
2022/05/13 06:55:47;;;;;;;19.20;6.82;;;;;;;21.56;39.29;101217.31;5033952;28;20033;-76
2022/05/13 06:58:14;;;;;;;23.00;5.57;;;;;;;21.42;39.89;101215.13;5037132;28;20067;-76
2022/05/13 07:00:40;;;;;;;17.33;5.13;;;;;;;21.23;40.55;101215.19;5013816;28;20079;-76
2022/05/13 07:03:10;;;;;;;19.33;5.55;;;;;;;21.23;40.20;101220.75;5018167;28;20163;-77
2022/05/13 07:05:35;;;;;;;22.83;5.72;;;;;;;21.49;39.69;101229.13;5028178;28;20116;-77
2022/05/13 07:08:01;;;;;;;17.27;5.85;;;;;;;21.20;40.26;101227.06;5024159;28;20626;-77
2022/05/13 07:10:27;;;;;;;19.92;5.97;;;;;;;21.69;39.42;101223.41;5051603;28;20036;-76
2022/05/13 07:12:53;;;;;;;19.42;5.15;;;;;;;21.84;38.92;101212.13;5052615;28;20036;-77
2022/05/13 07:15:20;;;;;;;16.45;4.85;;;;;;;21.64;39.24;101226.56;5052839;28;20017;-77
2022/05/13 07:17:46;;;;;;;23.33;6.57;;;;;;;21.77;38.97;101211.25;5052782;28;20025;-76
2022/05/13 07:20:13;;;;;;;24.60;6.95;;;;;;;21.57;39.33;101225.25;5032798;28;20498;-76
2022/05/13 07:22:39;;;;;;;22.75;6.68;;;;;;;21.79;38.98;101212.44;5032657;28;20451;-77
2022/05/13 07:25:05;;;;;;;26.35;5.60;;;;;;;21.94;38.99;101215.41;5017776;28;20053;-76
2022/05/13 07:27:31;;;;;;;22.60;6.22;;;;;;;22.00;38.72;101211.91;5020030;28;20017;-77
2022/05/13 07:29:57;;;;;;;29.65;7.57;;;;;;;21.82;38.96;101208.09;5000641;28;20020;-76
2022/05/13 07:32:22;;;;;;;24.02;6.95;;;;;;;22.22;38.50;101209.38;5020695;28;20029;-76
2022/05/13 07:34:48;;;;;;;25.77;6.45;;;;;;;22.09;38.71;101214.44;5022843;28;20026;-76
2022/05/13 07:37:14;;;;;;;16.52;4.82;;;;;;;22.07;39.08;101212.00;5016918;28;20025;-76
2022/05/13 07:42:23;;;;;;;16.77;5.85;;;;;;;22.05;38.78;101219.91;5019415;28;20035;-77
2022/05/13 07:44:49;;;;;;;22.42;5.88;;;;;;;22.43;38.17;101218.78;4999971;28;20037;-77
2022/05/13 07:47:17;;;;;;;20.73;5.60;;;;;;;21.79;39.04;101214.44;5017022;28;20013;-77
2022/05/13 07:49:43;;;;;;;24.15;6.20;;;;;;;21.77;38.85;101209.25;5029379;28;20025;-77
2022/05/13 07:52:09;;;;;;;20.65;6.20;;;;;;;21.66;39.22;101219.41;5035995;28;20043;-76
2022/05/13 07:54:36;;;;;;;20.63;5.55;;;;;;;21.83;38.64;101224.41;5022710;28;20081;-77
2022/05/13 07:57:03;;;;;;;23.35;5.47;;;;;;;22.29;37.78;101228.94;5028876;28;20029;-77
2022/05/13 07:59:32;;;;;;;19.85;6.43;;;;;;;22.30;37.81;101238.94;5030204;28;20032;-77
2022/05/13 08:01:58;;;;;;;25.85;8.15;;;;;;;22.39;38.06;101231.06;5028814;28;20063;-77
2022/05/13 08:04:24;;;;;;;19.27;5.50;;;;;;;22.50;37.47;101242.31;5035662;28;20032;-77
2022/05/13 08:06:50;;;;;;;21.45;5.63;;;;;;;22.31;38.01;101251.66;5041311;28;20021;-77
2022/05/13 08:09:19;;;;;;;22.15;5.78;;;;;;;22.05;38.22;101246.94;5054838;28;20040;-76
2022/05/13 08:11:45;;;;;;;19.80;6.47;;;;;;;22.17;37.97;101243.16;5055638;28;20075;-77
2022/05/13 08:14:10;;;;;;;25.50;5.43;;;;;;;22.11;38.05;101242.69;5037336;28;20029;-76
2022/05/13 08:16:36;;;;;;;18.90;6.05;;;;;;;22.23;38.04;101252.75;5036304;28;20036;-76
2022/05/13 08:19:03;;;;;;;28.90;8.23;;;;;;;22.48;37.48;101251.03;5036306;28;20029;-76
2022/05/13 08:21:30;;;;;;;18.95;4.95;;;;;;;22.12;38.44;101244.28;5036063;28;20042;-77
2022/05/13 08:23:55;;;;;;;16.10;5.75;;;;;;;21.96;38.14;101250.00;5036032;28;20040;-76
2022/05/13 08:26:21;;;;;;;17.40;6.47;;;;;;;22.18;38.20;101258.66;5036154;28;20029;-76
2022/05/13 08:28:46;;;;;;;23.08;5.78;;;;;;;22.23;38.19;101255.53;5036132;28;20476;-76
2022/05/13 08:31:13;;;;;;;19.33;5.57;;;;;;;22.32;37.95;101256.84;5018204;28;20033;-76
2022/05/13 08:33:40;;;;;;;17.65;6.10;;;;;;;22.69;37.29;101253.25;5036069;28;20083;-76
2022/05/13 08:36:07;;;;;;;25.75;7.03;;;;;;;22.44;37.69;101255.75;5036567;28;20456;-77
2022/05/13 08:38:36;;;;;;;30.85;6.88;;;;;;;22.47;37.88;101257.81;5072079;28;20073;-76
2022/05/13 08:41:45;;;;;;;22.10;6.45;;;;;;;22.35;38.56;101252.50;5075815;28;20510;-77
2022/05/13 08:44:14;;;;;;;17.80;6.13;;;;;;;22.36;38.23;101248.50;5061962;28;20048;-76
2022/05/13 08:47:04;;;;;;;27.75;6.53;;;;;;;22.46;38.02;101258.19;5075622;28;20048;-76
2022/05/13 08:49:39;;;;;;;21.38;5.75;;;;;;;22.61;38.32;101265.50;5057951;28;20082;-76
2022/05/13 08:54:56;;;;;;;28.23;8.13;;;;;;;22.54;38.16;101260.66;5075830;28;20023;-76
2022/05/13 08:57:27;;;;;;;23.95;8.02;;;;;;;22.39;38.44;101262.50;5075324;28;20052;-77
2022/05/13 09:00:03;;;;;;;18.60;5.43;;;;;;;22.59;37.94;101263.09;5057394;28;20028;-77
2022/05/13 09:02:34;;;;;;;19.50;5.47;;;;;;;22.43;38.15;101260.53;5057603;28;20078;-81
2022/05/13 09:05:24;;;;;;;23.75;7.03;;;;;;;22.91;37.77;101251.50;5057378;28;20112;-76
2022/05/13 09:07:51;;;;;;;17.10;5.38;;;;;;;23.04;37.50;101254.78;5054926;28;20024;-77
2022/05/13 09:10:17;;;;;;;14.20;4.88;;;;;;;23.19;37.41;101262.06;5074198;28;20035;-94
2022/05/13 09:12:51;;;;;;;18.35;6.47;;;;;;;22.82;38.16;101257.38;5075111;28;20036;-76
2022/05/13 09:15:22;;;;;;;20.63;6.82;;;;;;;23.64;37.04;101258.00;5075220;28;20033;-76
2022/05/13 09:18:23;;;;;;;24.38;7.38;;;;;;;23.22;37.26;101253.75;5075192;28;20031;-94
2022/05/13 09:20:58;;;;;;;16.58;5.25;;;;;;;23.39;36.52;101268.19;5063158;28;20053;-77
2022/05/13 09:23:24;;;;;;;24.48;7.85;;;;;;;23.46;36.82;101262.66;5022580;28;20037;-77
2022/05/13 09:26:03;;;;;;;22.52;6.35;;;;;;;23.52;36.58;101266.69;5039818;28;20431;-77
2022/05/13 09:28:31;;;;;;;25.67;5.95;;;;;;;23.71;36.20;101260.03;5039953;28;20033;-77
2022/05/13 09:31:20;;;;;;;18.92;5.95;;;;;;;23.81;36.48;101262.13;5039567;28;20033;-76
2022/05/13 09:33:47;;;;;;;24.70;6.65;;;;;;;24.23;35.60;101269.06;5035286;28;20033;-77
2022/05/13 09:36:21;;;;;;;23.92;6.93;;;;;;;23.60;36.55;101240.47;5017372;28;20388;-76
2022/05/13 09:38:50;;;;;;;21.80;6.93;;;;;;;24.34;35.30;101256.78;5042564;28;20028;-76
2022/05/13 09:41:28;;;;;;;20.45;6.38;;;;;;;24.18;35.42;101273.03;5054761;28;20100;-76
2022/05/13 09:44:18;;;;;;;22.48;6.60;;;;;;;24.21;35.58;101257.50;5054566;28;20060;-76
2022/05/13 09:46:50;;;;;;;23.77;6.53;;;;;;;24.11;35.73;101278.59;5054517;28;20029;-76
2022/05/13 09:49:16;;;;;;;18.50;6.57;;;;;;;24.57;34.95;101280.78;5054619;28;20584;-77
2022/05/13 09:52:08;;;;;;;23.52;6.47;;;;;;;24.33;36.03;101279.47;5054734;28;20045;-76
2022/05/13 09:54:39;;;;;;;22.67;6.60;;;;;;;24.74;34.65;101291.19;5054657;28;20024;-77
2022/05/13 09:57:20;;;;;;;20.02;5.82;;;;;;;24.38;35.18;101289.47;5054298;28;20104;-76
2022/05/13 09:59:53;;;;;;;22.63;6.72;;;;;;;24.70;35.11;101289.56;5054473;28;20025;-77
2022/05/13 10:02:37;;;;;;;24.70;7.75;;;;;;;24.92;34.33;101289.19;5054305;28;20025;-77
2022/05/13 10:05:24;;;;;;;20.45;6.80;;;;;;;24.92;34.00;101294.78;5054951;28;20029;-76
2022/05/13 10:07:49;;;;;;;16.35;5.57;;;;;;;24.68;34.15;101281.56;5054283;28;20096;-77
2022/05/13 10:14:00;;;;;;;18.45;5.72;;;;;;;23.81;35.01;101292.81;5054152;28;20120;-76
2022/05/13 10:16:46;;;;;;;19.30;5.72;;;;;;;23.73;35.18;101294.75;5054012;28;20082;-76
2022/05/13 10:19:19;;;;;;;22.38;5.32;;;;;;;23.52;35.25;101303.75;5054029;28;20482;-77
2022/05/13 10:22:22;;;;;;;19.90;6.53;;;;;;;23.69;34.56;101293.91;5035525;28;20516;-77
2022/05/13 10:25:10;;;;;;;25.38;6.82;;;;;;;23.68;34.81;101306.28;5053832;28;20040;-76
2022/05/13 10:27:39;;;;;;;23.70;5.97;;;;;;;23.68;34.75;101303.47;5053848;28;20029;-77
2022/05/13 10:30:26;;;;;;;19.02;5.15;;;;;;;23.41;34.67;101291.69;5053744;28;20032;-77
2022/05/13 10:33:16;;;;;;;19.33;6.10;;;;;;;24.26;33.91;101305.38;5038243;28;20163;-77
2022/05/13 10:36:00;;;;;;;24.70;6.55;;;;;;;24.13;34.18;101298.53;5053754;28;20087;-80
2022/05/13 10:38:48;;;;;;;23.38;7.30;;;;;;;24.30;34.36;101314.56;5055864;28;20128;-77
2022/05/13 10:41:23;;;;;;;21.77;7.35;;;;;;;24.80;34.19;101306.34;5073429;28;20024;-76
2022/05/13 10:43:57;;;;;;;22.50;6.78;;;;;;;24.58;34.54;101307.50;5073454;28;20039;-83
2022/05/13 10:46:34;;;;;;;20.90;6.72;;;;;;;24.87;34.19;101302.78;5073510;28;20486;-76
2022/05/13 10:49:00;;;;;;;18.30;6.18;;;;;;;24.87;34.08;101300.78;5073307;28;20437;-77
2022/05/13 10:51:38;;;;;;;23.80;7.32;;;;;;;24.96;34.31;101299.59;5073266;28;20021;-77
2022/05/13 10:54:56;;;;;;;17.35;6.18;;;;;;;24.99;33.29;101293.19;5073332;28;20036;-77
2022/05/13 10:57:33;;;;;;;19.02;5.85;;;;;;;25.55;33.21;101311.19;5068222;28;20036;-77
2022/05/13 11:00:17;;;;;;;20.33;5.97;;;;;;;25.08;33.14;101311.19;5073316;28;20028;-77
2022/05/13 11:03:04;;;;;;;17.60;5.18;;;;;;;24.77;32.72;101301.53;5073245;28;20036;-77
2022/05/13 11:05:40;;;;;;;14.52;5.43;;;;;;;24.96;32.50;101308.78;5073114;28;20421;-77
2022/05/13 11:08:12;;;;;;;21.73;6.68;;;;;;;24.99;32.60;101304.38;5072741;28;20032;-78
2022/05/13 11:11:02;;;;;;;21.73;6.07;;;;;;;24.99;32.45;101307.16;5066115;28;20048;-77
2022/05/13 11:13:48;;;;;;;;;;;;;;;24.67;32.94;101307.91;5073443;28;20033;-77
2022/05/13 11:16:30;;;;;;;21.45;6.05;;;;;;;24.46;33.03;101302.28;5072949;28;19908;-76
2022/05/13 11:19:25;;;;;;;16.67;5.97;;;;;;;24.60;32.55;101321.88;5072708;28;20043;-76
2022/05/13 11:22:08;;;;;;;17.77;5.35;;;;;;;24.65;33.01;101317.91;5069580;28;20048;-76
2022/05/13 11:28:06;;;;;;;22.65;6.88;;;;;;;24.54;32.65;101320.66;5072814;28;20044;-77
2022/05/13 11:30:42;;;;;;;19.50;5.88;;;;;;;24.52;32.29;101328.63;5072670;28;20029;-77
2022/05/13 11:33:36;;;;;;;28.40;6.93;;;;;;;24.82;31.52;101325.53;5072205;28;20028;-76
2022/05/13 11:36:13;;;;;;;16.38;5.68;;;;;;;25.03;31.21;101324.75;5072676;28;20039;-77
2022/05/13 11:39:02;;;;;;;20.60;5.35;;;;;;;24.71;31.98;101333.06;5070832;28;20070;-77
2022/05/13 11:41:39;;;;;;;23.05;5.97;;;;;;;24.68;31.94;101333.88;5072639;28;20086;-77
2022/05/13 11:44:07;;;;;;;19.48;5.28;;;;;;;24.94;32.16;101322.34;5072550;28;20028;-77
2022/05/13 11:47:01;;;;;;;20.42;5.20;;;;;;;24.97;31.75;101343.91;5071760;28;20024;-77
2022/05/13 11:49:31;;;;;;;23.58;6.63;;;;;;;25.29;31.53;101335.56;5072468;28;20047;-77
2022/05/13 11:52:22;;;;;;;17.88;5.63;;;;;;;25.24;31.01;101340.75;5072607;28;20048;-95
2022/05/13 11:54:48;;;;;;;21.42;5.65;;;;;;;25.18;31.40;101335.59;5072462;28;20029;-77
2022/05/13 11:57:18;;;;;;;23.33;6.68;;;;;;;24.75;31.31;101319.91;5072590;28;20363;-77
2022/05/13 11:59:49;;;;;;;19.00;6.85;;;;;;;24.31;32.51;101330.13;5072700;28;20035;-77